createdAt,value
2023-01-19T00:00:34.909Z,96151.84
2023-01-19T00:03:03.403Z,96129.25
2023-01-19T00:05:30.154Z,96085.69
2023-01-19T00:07:57.011Z,96037.25
2023-01-19T00:10:23.946Z,96163.34
2023-01-19T00:12:50.666Z,96165.81
2023-01-19T00:15:17.365Z,96167.97
2023-01-19T00:17:44.075Z,96169.63
2023-01-19T00:20:11.872Z,96172.72
2023-01-19T00:22:38.578Z,96065.47
2023-01-19T00:25:05.406Z,96060.94
2023-01-19T00:27:35.057Z,96181.84
2023-01-19T00:30:02.448Z,96178.97
2023-01-19T00:32:29.196Z,96165.38
2023-01-19T00:34:55.850Z,96173.25
2023-01-19T00:37:22.580Z,96157.84
2023-01-19T00:39:49.276Z,96174.59
2023-01-19T00:42:34.633Z,96140.25
2023-01-19T00:45:01.303Z,96177.81
2023-01-19T00:47:28.380Z,96183.09
2023-01-19T00:49:55.114Z,96146.84
2023-01-19T00:52:21.912Z,96025.28
2023-01-19T00:54:48.653Z,96194.31
2023-01-19T00:57:16.168Z,96130.28
2023-01-19T00:59:43.307Z,96131.50
2023-01-19T01:02:11.608Z,96199.94
2023-01-19T01:04:38.613Z,96209.34
2023-01-19T01:07:05.392Z,96228.59
2023-01-19T01:09:32.374Z,96222.06
2023-01-19T01:11:59.224Z,96223.63
2023-01-19T01:14:26.715Z,96239.94
2023-01-19T01:16:53.621Z,96245.63
2023-01-19T01:19:20.588Z,96015.47
2023-01-19T01:21:47.365Z,96251.25
2023-01-19T01:24:14.048Z,96247.41
2023-01-19T01:26:40.737Z,96250.25
2023-01-19T01:29:08.472Z,96249.94
2023-01-19T01:31:35.286Z,96182.09
2023-01-19T01:34:02.061Z,96131.00
2023-01-19T01:36:32.169Z,96258.66
2023-01-19T01:38:59.465Z,96222.78
2023-01-19T01:41:27.552Z,96255.06
2023-01-19T01:44:00.102Z,96263.97
2023-01-19T01:46:28.995Z,96244.00
2023-01-19T01:49:10.677Z,96272.22
2023-01-19T01:51:53.541Z,96185.25
2023-01-19T01:54:23.184Z,96257.38
2023-01-19T01:56:52.979Z,96283.34
2023-01-19T01:59:26.364Z,96293.66
2023-01-19T02:02:14.657Z,96300.69
2023-01-19T02:04:52.265Z,96267.38
2023-01-19T02:07:48.729Z,96287.28
2023-01-19T02:10:33.964Z,96303.28
2023-01-19T02:13:21.847Z,96300.69
2023-01-19T02:15:57.889Z,96300.81
2023-01-19T02:18:28.322Z,96219.59
2023-01-19T02:21:24.065Z,96275.81
2023-01-19T02:23:51.951Z,96292.56
2023-01-19T02:26:22.372Z,96296.75
2023-01-19T02:29:04.766Z,96305.44
2023-01-19T02:31:33.557Z,96125.72
2023-01-19T02:34:02.560Z,96308.34
2023-01-19T02:36:35.680Z,96259.94
2023-01-19T02:39:04.538Z,96301.81
2023-01-19T02:41:36.526Z,96143.03
2023-01-19T02:44:06.176Z,96304.97
2023-01-19T02:46:33.326Z,96306.13
2023-01-19T02:49:01.712Z,96306.38
2023-01-19T02:51:32.296Z,96299.94
2023-01-19T02:54:04.795Z,96311.19
2023-01-19T02:56:37.309Z,96300.19
2023-01-19T02:59:14.842Z,96300.53
2023-01-19T03:02:09.422Z,96309.31
2023-01-19T03:05:00.962Z,96312.84
2023-01-19T03:07:52.692Z,96313.88
2023-01-19T03:10:34.514Z,96315.72
2023-01-19T03:13:31.233Z,96140.41
2023-01-19T03:16:09.539Z,96311.91
2023-01-19T03:18:38.733Z,96317.25
2023-01-19T03:21:07.707Z,96310.72
2023-01-19T03:23:38.769Z,96322.06
2023-01-19T03:26:09.795Z,96324.16
2023-01-19T03:28:40.229Z,96344.84
2023-01-19T03:31:17.289Z,96253.34
2023-01-19T03:33:50.020Z,96330.69
2023-01-19T03:38:58.589Z,96354.19
2023-01-19T03:41:28.435Z,96326.94
2023-01-19T03:43:56.898Z,96334.56
2023-01-19T03:46:26.263Z,96335.47
2023-01-19T03:48:53.449Z,96253.34
2023-01-19T03:51:21.767Z,96330.69
2023-01-19T03:53:50.099Z,96328.34
2023-01-19T03:56:22.677Z,96040.94
2023-01-19T03:58:49.793Z,96323.53
2023-01-19T04:01:17.766Z,96343.31
2023-01-19T04:03:44.601Z,96302.66
2023-01-19T04:06:11.462Z,96306.41
2023-01-19T04:08:38.139Z,96198.34
2023-01-19T04:11:05.000Z,96334.94
2023-01-19T04:13:31.756Z,96314.91
2023-01-19T04:16:03.285Z,96332.94
2023-01-19T04:18:33.724Z,96325.69
2023-01-19T04:21:02.045Z,96305.03
2023-01-19T04:23:28.904Z,96339.91
2023-01-19T04:25:59.601Z,96169.81
2023-01-19T04:28:27.386Z,96156.91
2023-01-19T04:30:54.716Z,96265.22
2023-01-19T04:33:22.589Z,96335.53
2023-01-19T04:35:52.259Z,96284.19
2023-01-19T04:38:20.660Z,96352.94
2023-01-19T04:40:49.258Z,96054.59
2023-01-19T04:43:16.155Z,96329.41
2023-01-19T04:45:44.831Z,96205.94
2023-01-19T04:48:12.785Z,96284.94
2023-01-19T04:50:39.920Z,96348.91
2023-01-19T04:53:06.593Z,96348.53
2023-01-19T04:55:33.511Z,96347.19
2023-01-19T04:58:00.588Z,96348.25
2023-01-19T05:00:28.261Z,96352.56
2023-01-19T05:02:55.002Z,96328.06
2023-01-19T05:05:21.805Z,96354.31
2023-01-19T05:07:48.519Z,96340.34
2023-01-19T05:10:15.363Z,96358.91
2023-01-19T05:12:42.346Z,96364.97
2023-01-19T05:15:10.032Z,96204.28
2023-01-19T05:17:37.119Z,96368.34
2023-01-19T05:20:04.709Z,96359.63
2023-01-19T05:22:31.676Z,96264.28
2023-01-19T05:24:58.510Z,96314.78
2023-01-19T05:27:25.202Z,96355.78
2023-01-19T05:29:52.113Z,96356.59
2023-01-19T05:32:18.804Z,96226.97
2023-01-19T05:34:45.506Z,96313.28
2023-01-19T05:37:12.209Z,96327.69
2023-01-19T05:39:38.878Z,96354.97
2023-01-19T05:42:05.694Z,96352.53
2023-01-19T05:44:32.389Z,96356.94
2023-01-19T05:46:59.197Z,96351.91
2023-01-19T05:49:25.963Z,96198.50
2023-01-19T05:51:52.649Z,96284.78
2023-01-19T05:54:19.328Z,96352.34
2023-01-19T05:56:46.104Z,96346.59
2023-01-19T05:59:12.846Z,96331.56
2023-01-19T06:01:40.324Z,96191.16
2023-01-19T06:04:10.258Z,96324.19
2023-01-19T06:06:36.938Z,96158.22
2023-01-19T06:09:03.699Z,96351.19
2023-01-19T06:11:30.406Z,96350.47
2023-01-19T06:13:57.165Z,96334.47
2023-01-19T06:16:23.878Z,96341.47
2023-01-19T06:18:50.634Z,96349.16
2023-01-19T06:21:17.369Z,96368.25
2023-01-19T06:23:44.792Z,96371.03
2023-01-19T06:26:11.720Z,96353.31
2023-01-19T06:28:38.418Z,96194.63
2023-01-19T06:31:05.520Z,96295.78
2023-01-19T06:33:32.265Z,96362.34
2023-01-19T06:35:58.997Z,96397.34
2023-01-19T06:38:26.073Z,96328.41
2023-01-19T06:41:02.716Z,96387.09
2023-01-19T06:43:29.820Z,96245.06
2023-01-19T06:45:56.556Z,96381.56
2023-01-19T06:48:23.737Z,96362.06
2023-01-19T06:50:50.493Z,96326.50
2023-01-19T06:53:17.376Z,96419.94
2023-01-19T06:55:44.472Z,96412.84
2023-01-19T06:58:11.804Z,96420.16
2023-01-19T07:00:38.605Z,96246.81
2023-01-19T07:03:09.166Z,96421.88
2023-01-19T07:05:36.713Z,96431.59
2023-01-19T07:08:04.034Z,96426.69
2023-01-19T07:11:24.658Z,96423.56
2023-01-19T07:13:17.817Z,96284.50
2023-01-19T07:15:44.616Z,96429.78
2023-01-19T07:18:11.378Z,96270.91
2023-01-19T07:20:38.500Z,96321.09
2023-01-19T07:23:05.183Z,96420.25
2023-01-19T07:25:32.146Z,96300.34
2023-01-19T07:27:59.747Z,96434.28
2023-01-19T07:30:27.000Z,96185.84
2023-01-19T07:32:58.600Z,96172.00
2023-01-19T07:35:26.062Z,96419.75
2023-01-19T07:37:52.976Z,96456.59
2023-01-19T07:40:19.744Z,96239.84
2023-01-19T07:42:48.677Z,96453.84
2023-01-19T07:45:17.418Z,96476.88
2023-01-19T07:47:51.837Z,96404.75
2023-01-19T07:50:21.449Z,96467.72
2023-01-19T07:52:50.749Z,96446.53
2023-01-19T07:55:17.670Z,96437.16
2023-01-19T07:57:44.370Z,96473.66
2023-01-19T08:00:11.659Z,96456.41
2023-01-19T08:02:41.789Z,96441.91
2023-01-19T08:05:09.037Z,96236.00
2023-01-19T08:07:35.820Z,96480.50
2023-01-19T08:10:02.476Z,96452.84
2023-01-19T08:12:29.635Z,96442.78
2023-01-19T08:14:56.320Z,96496.78
2023-01-19T08:17:22.990Z,96496.09
2023-01-19T08:19:49.724Z,96479.69
2023-01-19T08:22:16.577Z,96419.91
2023-01-19T08:24:43.319Z,96512.63
2023-01-19T08:27:10.099Z,96502.16
2023-01-19T08:29:37.061Z,96403.06
2023-01-19T08:32:04.068Z,96521.16
2023-01-19T08:34:31.120Z,96362.69
2023-01-19T08:36:58.711Z,96357.28
2023-01-19T08:39:28.314Z,96528.66
2023-01-19T08:41:55.248Z,96523.00
2023-01-19T08:44:22.127Z,96503.00
2023-01-19T08:46:48.881Z,96409.28
2023-01-19T08:49:15.965Z,96378.03
2023-01-19T08:51:46.955Z,96536.00
2023-01-19T08:54:14.171Z,96528.84
2023-01-19T08:56:41.016Z,96528.38
2023-01-19T08:59:10.083Z,96529.03
2023-01-19T09:01:37.943Z,96344.16
2023-01-19T09:04:05.001Z,96533.94
2023-01-19T09:06:32.767Z,96511.91
2023-01-19T09:08:59.786Z,96330.56
2023-01-19T09:11:30.055Z,96526.38
2023-01-19T09:13:56.792Z,96529.28
2023-01-19T09:16:23.593Z,96373.09
2023-01-19T09:18:50.306Z,96512.47
2023-01-19T09:21:17.054Z,96531.75
2023-01-19T09:23:43.844Z,96264.53
2023-01-19T09:26:10.918Z,96535.56
2023-01-19T09:28:38.345Z,96537.25
2023-01-19T09:31:07.743Z,96512.50
2023-01-19T09:33:35.241Z,96376.41
2023-01-19T09:36:02.339Z,96505.88
2023-01-19T09:38:32.782Z,96387.22
2023-01-19T09:41:00.545Z,96391.25
2023-01-19T09:43:42.182Z,96485.50
2023-01-19T09:46:14.353Z,96374.25
2023-01-19T09:48:48.005Z,96538.06
2023-01-19T09:51:28.302Z,96517.75
2023-01-19T09:54:15.992Z,96532.34
2023-01-19T09:56:44.598Z,96526.13
2023-01-19T09:59:21.099Z,96520.72
2023-01-19T10:02:12.538Z,96524.72
2023-01-19T10:04:44.630Z,96517.53
2023-01-19T10:07:32.591Z,96518.63
2023-01-19T10:10:08.418Z,96522.66
2023-01-19T10:12:35.037Z,96515.81
2023-01-19T10:15:39.336Z,96521.56
2023-01-19T10:18:17.981Z,96522.06
2023-01-19T10:21:15.348Z,96370.31
2023-01-19T10:24:08.334Z,96529.47
2023-01-19T10:26:43.768Z,96501.09
2023-01-19T10:29:25.969Z,96382.16
2023-01-19T10:32:01.827Z,96516.34
2023-01-19T10:34:28.617Z,96520.53
2023-01-19T10:37:04.806Z,96512.00
2023-01-19T10:39:31.903Z,96497.94
2023-01-19T10:42:02.477Z,96517.56
2023-01-19T10:44:35.155Z,96517.59
2023-01-19T10:47:02.481Z,96516.50
2023-01-19T10:49:29.192Z,96454.00
2023-01-19T10:52:00.022Z,96511.84
2023-01-19T10:54:30.239Z,96516.81
2023-01-19T10:56:59.397Z,96537.16
2023-01-19T10:59:51.136Z,96532.09
2023-01-19T11:02:27.716Z,96258.06
2023-01-19T11:05:21.643Z,96504.00
2023-01-19T11:07:48.337Z,96521.31
2023-01-19T11:10:17.898Z,96517.78
2023-01-19T11:12:54.687Z,96520.94
2023-01-19T11:15:24.445Z,96529.53
2023-01-19T11:17:52.884Z,96506.44
2023-01-19T11:20:29.451Z,96523.38
2023-01-19T11:23:18.687Z,96518.84
2023-01-19T11:25:48.472Z,96519.00
2023-01-19T11:28:32.866Z,96517.59
2023-01-19T11:30:59.583Z,96509.94
2023-01-19T11:33:43.471Z,96515.00
2023-01-19T11:36:26.777Z,96511.16
2023-01-19T11:38:56.122Z,96508.44
2023-01-19T11:41:35.487Z,96391.09
2023-01-19T11:44:29.934Z,96504.81
2023-01-19T11:46:59.982Z,96504.44
2023-01-19T11:49:51.572Z,96501.19
2023-01-19T11:52:27.203Z,96504.31
2023-01-19T11:54:56.730Z,96503.09
2023-01-19T11:57:23.628Z,96454.19
2023-01-19T11:59:50.949Z,96498.78
2023-01-19T12:02:30.650Z,96469.44
2023-01-19T12:05:04.836Z,96477.63
2023-01-19T12:07:35.455Z,96501.38
2023-01-19T12:10:25.534Z,96500.53
2023-01-19T12:12:53.399Z,96496.97
2023-01-19T12:15:35.757Z,96498.19
2023-01-19T12:18:05.158Z,96465.72
2023-01-19T12:20:37.963Z,96496.00
2023-01-19T12:23:10.754Z,96492.72
2023-01-19T12:25:55.631Z,96488.47
2023-01-19T12:28:32.754Z,96494.03
2023-01-19T12:31:02.656Z,96451.28
2023-01-19T12:33:29.357Z,96494.78
2023-01-19T12:36:00.887Z,96496.25
2023-01-19T12:38:43.376Z,96489.84
2023-01-19T12:41:27.743Z,96379.47
2023-01-19T12:44:09.937Z,96493.66
2023-01-19T12:46:47.938Z,96494.97
2023-01-19T12:49:31.281Z,96489.97
2023-01-19T12:52:10.141Z,96491.94
2023-01-19T12:54:37.821Z,96465.84
2023-01-19T12:57:16.879Z,96482.63
2023-01-19T12:59:43.885Z,96498.25
2023-01-19T13:02:42.378Z,96490.31
2023-01-19T13:05:15.147Z,96489.91
2023-01-19T13:08:03.386Z,96483.66
2023-01-19T13:11:09.606Z,96488.84
2023-01-19T13:13:36.880Z,96486.38
2023-01-19T13:16:18.878Z,96484.22
2023-01-19T13:18:50.514Z,96392.72
2023-01-19T13:21:30.871Z,96435.97
2023-01-19T13:24:03.750Z,96345.47
2023-01-19T13:26:38.525Z,96478.22
2023-01-19T13:29:15.953Z,96470.97
2023-01-19T13:31:49.098Z,96456.13
2023-01-19T13:34:23.009Z,96347.22
2023-01-19T13:36:59.264Z,96489.13
2023-01-19T13:39:44.240Z,96502.75
2023-01-19T13:42:30.473Z,96468.38
2023-01-19T13:45:05.612Z,96500.16
2023-01-19T13:47:49.164Z,96493.38
2023-01-19T13:50:20.286Z,96495.66
2023-01-19T13:52:48.901Z,96491.41
2023-01-19T13:55:16.029Z,96415.91
2023-01-19T13:57:45.497Z,96381.72
2023-01-19T14:00:12.498Z,96491.56
2023-01-19T14:02:42.242Z,96430.75
2023-01-19T14:05:15.787Z,96493.34
2023-01-19T14:07:42.553Z,96452.31
2023-01-19T14:10:15.050Z,96477.41
2023-01-19T14:12:58.222Z,96340.69
2023-01-19T14:15:26.140Z,96494.84
2023-01-19T14:18:11.333Z,96498.13
2023-01-19T14:20:38.641Z,96462.38
2023-01-19T14:23:06.975Z,96307.47
2023-01-19T14:25:36.171Z,96497.16
2023-01-19T14:28:28.459Z,96494.69
2023-01-19T14:30:57.259Z,96494.56
2023-01-19T14:33:58.520Z,96501.38
2023-01-19T14:36:36.304Z,96497.84
2023-01-19T14:39:04.264Z,96490.06
2023-01-19T14:41:36.778Z,96495.91
2023-01-19T14:44:09.118Z,96481.28
2023-01-19T14:46:36.199Z,96487.16
2023-01-19T14:49:06.056Z,96485.66
2023-01-19T14:51:33.061Z,96371.00
2023-01-19T14:54:01.938Z,96451.56
2023-01-19T14:56:31.482Z,96468.75
2023-01-19T14:58:59.713Z,96457.44
2023-01-19T15:01:31.304Z,96348.84
2023-01-19T15:03:58.558Z,96490.72
2023-01-19T15:06:26.639Z,96497.38
2023-01-19T15:08:54.361Z,96502.16
2023-01-19T15:11:29.885Z,96501.38
2023-01-19T15:13:56.714Z,96359.47
2023-01-19T15:16:26.002Z,96483.66
2023-01-19T15:18:52.690Z,96356.78
2023-01-19T15:21:23.189Z,96468.28
2023-01-19T15:23:50.553Z,96498.00
2023-01-19T15:26:19.449Z,96493.22
2023-01-19T15:28:48.786Z,96494.59
2023-01-19T15:31:18.059Z,96499.38
2023-01-19T15:33:45.348Z,96491.03
2023-01-19T15:36:18.419Z,96498.28
2023-01-19T15:38:45.725Z,96504.56
2023-01-19T15:41:14.546Z,96502.75
2023-01-19T15:43:41.321Z,96461.84
2023-01-19T15:46:11.616Z,96485.06
2023-01-19T15:48:38.343Z,96495.66
2023-01-19T15:51:12.399Z,96506.19
2023-01-19T15:53:40.407Z,96472.78
2023-01-19T15:56:11.815Z,96346.91
2023-01-19T15:58:38.499Z,96501.69
2023-01-19T16:01:05.404Z,96341.00
2023-01-19T16:03:32.127Z,96450.38
2023-01-19T16:06:01.895Z,96468.81
2023-01-19T16:08:28.929Z,96356.00
2023-01-19T16:10:55.662Z,96477.38
2023-01-19T16:13:22.376Z,96489.25
2023-01-19T16:29:11.012Z,96449.72
2023-01-19T16:31:39.132Z,96517.91
2023-01-19T16:34:06.089Z,96513.38
2023-01-19T16:36:35.034Z,96348.75
2023-01-19T16:39:13.769Z,96524.25
2023-01-19T16:41:40.898Z,96530.41
2023-01-19T16:44:09.710Z,96529.16
2023-01-19T16:46:40.201Z,96398.34
2023-01-19T16:49:15.303Z,96527.31
2023-01-19T16:51:42.269Z,96537.38
2023-01-19T16:54:13.469Z,96539.06
2023-01-19T16:56:40.167Z,96523.16
2023-01-19T16:59:07.040Z,96539.81
2023-01-19T17:01:33.923Z,96542.09
2023-01-19T17:04:00.671Z,96528.13
2023-01-19T17:06:30.231Z,96544.31
2023-01-19T17:08:57.596Z,96554.34
2023-01-19T17:11:27.032Z,96554.16
2023-01-19T17:13:54.942Z,96398.13
2023-01-19T17:16:23.081Z,96563.06
2023-01-19T17:18:50.321Z,96532.63
2023-01-19T17:21:18.103Z,96589.88
2023-01-19T17:23:47.719Z,96560.19
2023-01-19T17:26:15.481Z,96568.44
2023-01-19T17:28:42.668Z,96570.44
2023-01-19T17:31:18.741Z,96564.00
2023-01-19T17:33:47.346Z,96576.22
2023-01-19T17:36:20.501Z,96568.03
2023-01-19T17:38:47.167Z,96548.84
2023-01-19T17:41:26.219Z,96567.94
2023-01-19T17:43:53.530Z,96572.88
2023-01-19T17:46:23.325Z,96532.69
2023-01-19T17:49:03.914Z,96540.31
2023-01-19T17:51:31.171Z,96562.13
2023-01-19T17:53:58.561Z,96570.25
2023-01-19T17:56:29.587Z,96575.88
2023-01-19T17:58:57.691Z,96433.88
2023-01-19T18:01:30.484Z,96574.47
2023-01-19T18:03:58.352Z,96565.59
2023-01-19T18:06:25.095Z,96541.31
2023-01-19T18:08:52.650Z,96576.81
2023-01-19T18:11:20.824Z,96581.16
2023-01-19T18:13:49.185Z,96482.03
2023-01-19T18:16:19.338Z,96579.53
2023-01-19T18:18:46.509Z,96579.53
2023-01-19T18:21:14.895Z,96576.28
2023-01-19T18:23:46.014Z,96560.06
2023-01-19T18:26:18.670Z,96584.47
2023-01-19T18:28:45.869Z,96366.06
2023-01-19T18:31:16.149Z,96582.22
2023-01-19T18:33:43.033Z,96522.34
2023-01-19T18:36:10.590Z,96566.75
2023-01-19T18:38:39.211Z,96586.59
2023-01-19T18:41:08.848Z,96406.94
2023-01-19T18:43:35.746Z,96562.53
2023-01-19T18:46:02.754Z,96580.56
2023-01-19T18:48:29.742Z,96587.16
2023-01-19T18:50:56.664Z,96591.84
2023-01-19T18:53:23.954Z,96572.38
2023-01-19T18:55:58.710Z,96587.25
2023-01-19T18:58:28.625Z,96591.13
2023-01-19T19:00:56.260Z,96589.81
2023-01-19T19:03:23.454Z,96565.31
2023-01-19T19:05:50.322Z,96579.44
2023-01-19T19:08:17.046Z,96580.03
2023-01-19T19:10:44.025Z,96384.66
2023-01-19T19:13:13.285Z,96578.47
2023-01-19T19:15:40.174Z,96526.56
2023-01-19T19:18:09.015Z,96463.44
2023-01-19T19:20:39.311Z,96426.44
2023-01-19T19:23:06.142Z,96341.69
2023-01-19T19:25:33.155Z,96586.41
2023-01-19T19:27:59.851Z,96581.25
2023-01-19T19:30:26.875Z,96591.88
2023-01-19T19:32:56.069Z,96591.63
2023-01-19T19:35:23.831Z,96571.16
2023-01-19T19:37:51.534Z,96588.84
2023-01-19T19:40:18.327Z,96593.75
2023-01-19T19:42:45.136Z,96499.56
2023-01-19T19:45:12.343Z,96548.81
2023-01-19T19:47:39.049Z,96438.75
2023-01-19T19:50:06.009Z,96581.13
2023-01-19T19:52:38.043Z,96580.75
2023-01-19T19:55:06.586Z,96451.84
2023-01-19T19:57:33.301Z,96577.00
2023-01-19T19:59:59.970Z,96582.59
2023-01-19T20:02:26.680Z,96527.84
2023-01-19T20:04:53.620Z,96471.50
2023-01-19T20:07:20.299Z,96458.19
2023-01-19T20:09:47.427Z,96480.16
2023-01-19T20:12:14.148Z,96605.47
2023-01-19T20:14:40.932Z,96620.94
2023-01-19T20:17:07.631Z,96616.47
2023-01-19T20:19:34.329Z,96620.69
2023-01-19T20:22:00.952Z,96477.13
2023-01-19T20:24:28.060Z,96617.19
2023-01-19T20:26:56.328Z,96485.44
2023-01-19T20:29:23.319Z,96599.97
2023-01-19T20:31:55.521Z,96593.19
2023-01-19T20:34:25.528Z,96626.44
2023-01-19T20:36:53.967Z,96615.13
2023-01-19T20:39:22.779Z,96620.22
2023-01-19T20:41:51.364Z,96623.72
2023-01-19T20:44:23.675Z,96622.53
2023-01-19T20:46:52.676Z,96610.53
2023-01-19T20:49:19.745Z,96617.63
2023-01-19T20:51:47.062Z,96622.66
2023-01-19T20:54:16.009Z,96625.69
2023-01-19T20:56:42.717Z,96565.19
2023-01-19T20:59:11.408Z,96621.44
2023-01-19T21:01:39.026Z,96617.63
2023-01-19T21:04:05.882Z,96620.88
2023-01-19T21:06:33.124Z,96626.63
2023-01-19T21:08:59.844Z,96640.34
2023-01-19T21:11:26.925Z,96581.72
2023-01-19T21:13:56.250Z,96623.41
2023-01-19T21:16:24.382Z,96470.50
2023-01-19T21:18:51.308Z,96641.22
2023-01-19T21:21:29.850Z,96639.69
2023-01-19T21:23:59.204Z,96641.56
2023-01-19T21:26:26.107Z,96648.66
2023-01-19T21:28:52.926Z,96646.66
2023-01-19T21:31:22.669Z,96522.50
2023-01-19T21:33:53.413Z,96646.19
2023-01-19T21:36:21.287Z,96632.13
2023-01-19T21:38:48.412Z,96652.88
2023-01-19T21:41:16.388Z,96616.47
2023-01-19T21:43:43.520Z,96653.50
2023-01-19T21:46:20.710Z,96649.59
2023-01-19T21:48:47.916Z,96654.50
2023-01-19T21:51:15.751Z,96652.75
2023-01-19T21:53:43.563Z,96654.28
2023-01-19T21:56:11.318Z,96651.56
2023-01-19T21:58:38.447Z,96632.81
2023-01-19T22:01:10.840Z,96657.44
2023-01-19T22:03:37.823Z,96660.69
2023-01-19T22:06:06.387Z,96634.06
2023-01-19T22:08:33.591Z,96601.16
2023-01-19T22:11:05.294Z,96587.47
2023-01-19T22:13:33.290Z,96651.03
2023-01-19T22:16:04.295Z,96642.53
2023-01-19T22:18:31.042Z,96656.09
2023-01-19T22:21:36.188Z,96643.09
2023-01-19T22:24:04.584Z,96655.84
2023-01-19T22:26:34.099Z,96661.81
2023-01-19T22:29:03.167Z,96653.13
2023-01-19T22:31:30.942Z,96657.22
2023-01-19T22:33:58.016Z,96644.28
2023-01-19T22:36:25.859Z,96622.97
2023-01-19T22:38:53.718Z,96643.72
2023-01-19T22:41:29.577Z,96645.50
2023-01-19T22:43:58.445Z,96589.19
2023-01-19T22:46:27.892Z,96597.25
2023-01-19T22:48:55.409Z,96644.94
2023-01-19T22:51:23.550Z,96599.56
2023-01-19T22:53:50.714Z,96640.56
2023-01-19T22:56:21.758Z,96639.50
2023-01-19T22:58:49.283Z,96624.16
2023-01-19T23:01:19.411Z,96638.63
2023-01-19T23:03:46.431Z,96637.09
2023-01-19T23:06:16.486Z,96616.94
2023-01-19T23:08:43.740Z,96628.44
2023-01-19T23:11:15.995Z,96643.59
2023-01-19T23:13:43.152Z,96646.75
2023-01-19T23:16:10.784Z,96650.34
2023-01-19T23:18:38.177Z,96619.28
2023-01-19T23:21:11.007Z,96656.22
2023-01-19T23:23:38.421Z,96525.00
2023-01-19T23:26:10.607Z,96653.41
2023-01-19T23:28:38.043Z,96521.69
2023-01-19T23:31:22.548Z,96654.28
2023-01-19T23:33:50.884Z,96654.84
2023-01-19T23:36:18.699Z,96665.81
2023-01-19T23:38:53.912Z,96669.53
2023-01-19T23:41:21.231Z,96531.97
2023-01-19T23:43:47.927Z,96684.09
2023-01-19T23:46:15.727Z,96684.94
2023-01-19T23:48:42.626Z,96684.94
2023-01-19T23:51:12.686Z,96685.78
2023-01-19T23:53:39.812Z,96690.13
2023-01-19T23:56:26.189Z,96690.13
2023-01-19T23:58:55.570Z,96690.13
